Date,TemperatureHighF,TemperatureAvgF,TemperatureLowF,DewpointHighF,DewpointAvgF,DewpointLowF,HumidityHigh,HumidityAvg,HumidityLow,PressureMaxIn,PressureMinIn,WindSpeedMaxMPH,WindSpeedAvgMPH,GustSpeedMaxMPH,PrecipitationSumIn
2012-6-17,95.9,83.1,75.4,56.5,53.3,50.7,50,37,27,30.15,30.12,3,0,5,0.00
2012-6-18,98.2,80.4,68.7,58.8,55.1,48.2,67,44,21,30.15,30.06,4,0,10,0.00
2012-6-19,97.5,80.4,70.7,62.9,56.4,51.0,72,47,26,30.15,30.06,5,0,6,0.00
2012-6-20,96.1,80.5,68.9,62.7,56.8,48.4,73,48,26,30.09,29.98,4,0,6,0.00
2012-6-21,92.8,79.7,70.2,66.9,56.5,42.8,76,47,23,30.04,29.95,6,1,6,0.00
2012-6-22,97.3,81.2,71.4,67.6,62.5,57.1,83,57,29,30.09,30.01,3,0,6,0.00
2012-6-23,95.7,81.8,71.6,64.5,56.3,44.7,72,45,26,30.18,30.09,6,0,6,0.00
2012-6-24,95.7,80.8,70.7,56.3,49.9,45.4,47,35,23,30.18,30.06,6,1,6,0.00
2012-6-25,93.6,78.3,68.5,62.5,56.9,46.6,68,50,26,30.15,29.95,5,1,8,0.00
2012-6-26,92.5,79.7,72.0,67.7,62.5,57.0,72,57,38,30.12,30.01,6,1,7,0.00
2012-6-27,91.2,81.5,73.2,68.4,62.5,54.0,80,55,30,30.18,30.06,6,1,8,0.00
2012-6-28,96.6,82.8,74.5,66.4,62.4,56.7,69,52,30,30.09,30.04,5,1,8,0.00
2012-6-29,93.4,81.3,72.3,70.9,66.2,60.2,76,62,39,30.15,30.06,5,0,6,0.00
2012-6-30,95.7,82.6,73.2,71.3,65.8,56.9,87,61,29,30.18,30.06,5,0,6,0.00
2012-7-1,99.0,83.9,73.2,69.4,61.0,51.8,80,50,24,30.09,30.01,4,0,6,0.00
2012-7-2,94.5,82.9,73.0,69.3,60.0,52.3,64,48,26,30.12,30.01,6,1,9,0.00
2012-7-3,90.7,79.6,72.1,69.5,64.0,57.8,84,61,39,30.12,30.04,6,1,10,0.00
2012-7-4,88.3,78.2,70.5,68.0,64.9,58.3,81,65,42,30.06,29.98,6,1,8,0.00
2012-7-5,90.9,78.7,70.3,68.4,65.0,60.1,84,64,40,30.01,29.95,6,1,8,0.00
2012-7-6,90.9,78.8,71.2,69.0,65.2,58.1,87,65,39,30.06,29.95,5,1,9,0.00
2012-7-7,93.4,80.1,72.7,70.1,66.7,61.6,82,65,37,30.06,30.01,7,0,7,0.00
2012-7-8,95.7,81.1,71.4,70.4,64.8,51.5,89,61,29,30.06,30.01,6,0,8,0.00
2012-7-9,96.1,82.8,73.6,70.4,61.1,52.3,81,52,28,30.04,29.98,5,1,7,0.00
2012-7-10,84.2,82.5,77.5,73.0,67.2,65.2,86,61,53,30.09,29.98,2,1,3,0.00
2012-7-11,93.7,81.2,73.8,72.8,70.0,64.2,90,71,42,30.12,30.06,6,1,8,0.00
2012-7-12,91.6,81.1,72.5,72.8,67.9,61.3,86,66,38,30.09,30.01,6,1,8,0.00
2012-7-13,90.3,78.4,71.2,72.3,65.5,58.9,85,67,40,30.09,29.98,5,2,7,0.00
2012-7-14,90.7,80.3,71.1,71.8,64.8,56.7,85,61,38,30.06,29.95,6,2,10,0.00
2012-7-15,92.3,81.2,74.7,73.7,67.3,57.8,89,65,35,30.09,29.95,8,2,9,0.00
2012-7-16,90.9,78.4,69.4,66.0,55.8,45.1,77,48,22,30.21,30.06,4,1,6,0.00
2012-7-17,91.2,79.1,71.2,60.2,51.9,44.1,57,39,26,30.21,30.09,6,1,7,0.00
2012-7-18,94.3,79.9,70.0,59.4,51.8,46.7,61,39,25,30.18,30.06,6,1,6,0.00
2012-7-19,96.1,80.5,69.3,64.3,54.2,47.7,67,43,21,30.15,30.01,4,0,6,0.00
2012-7-20,94.5,80.0,68.4,61.1,52.4,47.7,61,40,26,30.06,30.01,6,1,8,0.00
2012-7-21,88.7,78.7,69.3,68.8,57.7,47.7,69,49,35,30.04,29.98,7,1,8,0.00
2012-7-22,87.1,76.8,70.7,64.5,61.3,54.0,74,60,39,30.04,29.89,6,2,8,0.00
2012-7-23,85.3,74.6,69.3,65.6,59.5,50.1,80,60,44,30.01,29.89,5,1,6,29.89
2012-7-24,82.4,73.7,69.1,67.2,62.6,56.5,84,69,43,30.06,29.95,5,0,6,0.00
2012-7-25,89.4,76.4,68.9,66.1,63.7,59.5,89,67,38,30.12,30.01,6,1,8,0.00
2012-7-26,92.1,78.6,70.0,65.8,62.2,54.8,85,61,31,30.15,30.06,4,1,6,0.00
2012-7-27,97.2,81.6,71.8,65.6,59.9,52.3,77,51,26,30.09,30.01,4,0,6,0.00
2012-7-28,96.3,82.7,71.6,64.6,58.7,51.5,73,48,25,30.04,29.95,6,1,8,0.00
2012-7-31,90.0,80.3,77.2,62.8,60.5,51.5,58,51,27,30.04,29.95,2,0,4,0.00
2012-8-1,97.0,82.3,72.7,66.4,60.0,54.0,68,49,28,30.06,29.98,7,1,10,0.00
2012-8-2,95.4,82.1,73.4,68.4,64.0,56.8,82,57,30,30.09,30.01,6,1,8,0.00
2012-8-3,94.5,80.9,70.7,70.1,61.4,53.1,79,55,27,30.09,30.01,6,1,8,0.00
2012-8-4,94.8,81.2,69.6,69.3,59.4,52.1,78,51,27,30.06,29.95,6,2,9,0.00
2012-8-5,93.6,82.6,74.1,72.0,62.9,51.5,77,54,27,30.04,29.95,10,2,13,0.00
2012-8-6,98.1,85.1,76.6,70.8,59.9,50.4,78,47,23,30.12,30.04,5,1,6,0.00
2012-8-7,99.7,85.8,77.2,70.6,61.6,53.4,76,47,26,30.18,30.09,4,0,6,0.00
2012-8-8,99.0,81.9,70.3,66.2,56.5,45.7,77,46,19,30.15,30.06,5,1,5,0.00
2012-8-9,95.9,80.7,69.8,65.9,59.3,51.2,68,51,27,30.12,30.04,5,1,6,0.00
2012-8-10,95.4,81.9,72.3,65.2,60.8,54.6,72,51,29,30.09,29.98,6,1,8,0.00
2012-8-11,93.7,81.2,73.4,56.5,50.4,44.5,45,35,23,30.06,29.95,6,1,10,0.00
2012-8-12,89.1,79.2,70.9,64.0,55.6,49.8,65,45,28,30.06,29.98,6,1,8,0.00
2012-8-13,76.8,75.9,74.8,63.2,58.2,55.6,64,55,50,30.04,29.95,2,0,3,0.00
2012-8-21,86.2,82.6,75.2,71.6,69.4,56.3,76,65,52,30.15,30.06,4,1,5,0.00
2012-8-22,98.1,84.3,75.9,72.3,68.5,61.2,83,62,33,30.15,30.06,6,1,8,0.00
2012-8-23,98.6,84.3,73.9,73.7,67.3,57.7,87,61,29,30.15,30.04,6,0,8,0.00
2012-8-24,99.3,83.7,76.1,74.1,68.6,54.8,87,64,27,30.12,30.01,6,1,7,0.00
2012-8-25,93.4,81.9,73.0,72.8,66.7,59.1,84,62,34,30.09,30.01,6,2,8,0.00
2012-8-26,93.4,81.7,76.3,73.1,69.2,61.1,80,66,48,30.04,29.92,7,2,8,0.00
2012-8-27,101.3,82.7,72.0,69.7,52.7,39.4,77,41,15,30.15,30.01,3,1,6,0.00
2012-8-28,94.6,80.6,72.1,66.1,54.4,42.8,67,42,30,30.21,30.12,6,0,6,0.00
2012-8-29,97.0,80.3,69.6,69.4,61.3,50.2,78,56,25,30.21,30.15,5,0,7,0.00
2012-8-30,96.1,80.7,71.2,70.0,65.7,60.6,80,62,33,30.18,30.06,6,1,7,0.00
2012-8-31,87.3,77.4,72.0,72.6,63.6,50.5,85,64,33,30.12,29.98,8,2,10,0.00
2012-9-1,75.6,71.4,67.6,56.4,52.6,47.1,65,52,40,30.12,30.01,6,2,8,0.00
2012-9-2,79.0,70.6,66.0,65.3,56.8,50.8,80,62,39,30.15,30.06,4,0,6,9.07
2012-9-3,71.8,71.8,71.8,64.5,64.5,64.5,78,78,78,30.09,30.09,0,0,0,9.07
2012-9-4,71.8,70.1,68.5,64.9,64.6,64.5,87,83,78,30.09,30.01,0,0,0,9.07
2012-9-5,81.9,72.3,67.6,68.0,64.0,60.6,91,76,52,30.06,29.95,9,1,10,15.87
2012-9-6,90.0,76.0,67.3,67.2,64.8,58.0,92,71,35,30.21,30.04,4,0,7,8.79
2012-9-7,94.5,78.1,69.3,66.0,60.9,55.5,79,58,28,30.30,30.18,4,0,5,0.00
2012-9-8,93.7,77.0,68.2,65.8,60.6,51.8,81,61,25,30.24,30.12,4,0,9,0.00
2012-9-9,89.6,76.3,69.6,67.7,64.0,58.8,84,68,39,30.21,30.12,5,1,7,0.04
2012-9-10,88.5,75.8,68.4,67.9,65.2,60.3,89,72,42,30.24,30.18,5,0,7,0.00
2012-9-11,90.9,76.1,68.0,67.0,63.6,56.9,88,68,38,30.21,30.12,4,0,6,0.00
2012-9-12,86.2,74.7,68.2,69.7,65.7,59.7,91,75,45,30.15,29.89,5,2,7,0.00
2012-9-13,79.7,70.0,63.0,70.0,60.7,53.8,91,73,51,29.89,29.65,6,1,8,0.00
2012-9-14,65.5,62.4,59.0,57.5,54.4,49.6,88,75,65,29.80,29.65,4,1,6,0.00
2012-9-15,93.9,72.1,60.6,66.2,56.0,51.4,84,62,27,30.18,29.80,3,0,6,0.00
2012-9-16,89.8,76.2,68.2,61.2,58.7,54.1,72,56,33,30.06,29.92,4,1,6,0.00
2012-9-17,89.4,71.0,61.2,58.1,54.2,48.8,73,58,30,30.12,30.06,5,0,6,0.00
2012-9-18,89.6,72.1,63.1,61.7,57.5,53.1,80,63,32,30.12,30.06,4,0,6,0.00
2012-9-19,75.6,68.9,63.5,66.9,60.9,47.0,91,76,62,30.09,29.98,6,1,7,0.00
2012-9-20,90.1,73.1,65.7,67.0,54.0,37.7,95,59,20,30.24,30.04,4,1,4,0.00
2012-9-21,85.8,64.6,60.1,72.0,47.9,-99.9,77,56,42,30.27,30.01,6,0,4,0.00
2012-9-22,79.9,71.2,63.7,62.9,59.2,55.4,76,66,52,30.27,30.15,7,2,8,0.00
2012-9-23,82.8,74.5,67.1,65.7,61.2,55.1,90,64,50,30.21,30.06,7,2,10,0.00
2012-9-24,84.2,75.6,69.4,70.7,65.2,57.3,90,71,53,30.09,29.89,13,3,19,0.00
2012-9-25,83.5,73.7,68.2,65.6,61.9,52.1,88,69,36,30.06,30.01,6,3,8,0.00
2012-9-26,78.4,74.9,71.8,67.9,62.2,51.6,87,66,43,30.09,30.01,10,4,17,0.00
2012-9-27,88.3,77.6,71.6,71.3,66.3,54.3,90,69,45,30.15,30.01,8,3,8,0.00
2012-9-28,88.9,77.5,69.1,66.1,59.6,50.8,82,57,29,30.18,30.06,5,1,7,0.00
2012-9-29,93.6,78.3,68.5,66.9,55.7,42.8,73,50,18,30.12,30.01,11,2,15,0.00
2012-9-30,80.6,71.8,66.0,72.4,64.6,61.2,92,78,63,30.21,30.06,7,1,10,0.00
2012-10-1,80.2,69.7,63.7,66.3,61.6,57.4,96,77,54,30.18,30.09,3,0,3,0.00
2012-10-2,84.9,70.9,64.9,67.1,61.6,55.7,91,74,42,30.24,30.12,3,0,4,0.00
2012-10-3,87.4,70.6,62.1,64.9,58.0,50.4,89,68,32,30.27,30.18,4,0,6,0.00
2012-10-4,90.0,71.2,61.2,62.3,57.6,51.5,83,66,29,30.27,30.18,4,0,6,0.00
2012-10-5,91.8,72.2,63.1,63.2,58.5,52.0,84,66,29,30.27,30.21,4,0,4,0.00
2012-10-6,90.7,70.7,61.2,62.9,56.7,51.4,90,64,29,30.30,30.24,4,0,6,0.00
2012-10-7,75.2,68.8,62.8,65.1,60.2,54.5,83,74,59,30.27,30.09,6,1,9,0.00
2012-10-8,87.4,73.3,65.7,65.7,62.9,57.5,87,72,40,30.12,30.06,5,0,6,0.00
2012-10-9,81.9,69.6,63.5,66.3,63.2,58.9,90,81,50,30.12,29.95,6,1,8,0.00
2012-10-10,89.1,71.8,64.0,63.9,60.9,56.3,89,71,35,30.01,29.89,4,0,6,0.00
2012-10-11,84.7,70.6,62.6,64.7,61.4,55.7,91,74,41,30.04,29.95,5,1,9,0.00
2012-10-12,80.4,69.3,65.3,65.2,63.3,58.1,95,82,50,30.27,29.95,7,2,8,0.00
2012-10-13,73.4,66.5,63.5,66.7,62.2,59.8,92,86,70,30.06,29.98,6,0,8,0.00
2012-10-14,82.6,66.8,59.2,63.5,56.7,49.1,92,73,42,30.01,29.89,6,1,6,0.00
2012-10-15,77.2,68.2,63.5,64.2,59.5,54.0,84,75,54,29.92,29.77,8,2,11,0.00
2012-10-16,82.4,66.5,58.6,60.3,49.5,42.2,91,57,30,30.24,29.86,5,1,6,0.00
2012-10-17,83.1,66.3,57.7,56.9,51.5,48.1,75,61,34,30.33,30.21,4,0,12,0.00
2012-10-18,86.0,68.1,57.6,57.0,53.6,46.8,81,62,31,30.36,30.24,4,0,8,0.00
2012-10-19,88.2,69.4,58.1,57.6,52.7,46.7,78,59,29,30.30,30.24,6,0,23,0.00
2012-10-20,91.8,70.8,60.3,63.3,55.1,49.7,89,61,27,30.27,30.18,4,0,3,0.00
2012-10-21,91.9,71.3,60.8,60.9,57.2,48.8,90,65,29,30.21,30.12,2,0,3,0.00
2012-10-22,90.0,72.9,64.4,66.8,58.9,49.6,88,65,28,30.18,30.09,3,0,10,0.00
2012-10-23,82.0,71.2,64.6,66.2,63.1,58.4,89,77,50,30.18,30.12,4,1,6,0.00
2012-10-24,83.3,69.6,62.4,63.8,57.9,50.1,89,69,35,30.15,30.06,5,1,6,0.00
2012-10-25,87.3,68.9,60.8,58.8,53.6,48.5,76,60,32,30.09,30.01,4,0,4,0.00
2012-10-26,71.4,65.6,61.0,64.7,58.1,52.4,96,77,62,30.04,29.62,9,2,10,0.00
2012-10-27,76.6,68.6,64.8,65.9,60.5,51.4,96,76,49,29.65,29.42,9,4,12,0.00
2012-10-28,65.8,59.3,54.0,55.4,40.0,31.8,69,50,36,29.74,29.44,8,3,11,0.00
2012-10-29,68.4,53.9,48.9,50.0,41.0,36.1,79,62,39,30.01,29.68,13,0,50,0.00
2012-10-30,67.8,54.6,45.0,43.3,38.7,36.3,73,56,35,30.06,29.92,5,0,12,0.00
2012-10-31,65.5,58.8,54.0,62.4,52.3,41.0,97,80,61,29.92,29.42,10,2,15,0.00
2012-11-1,71.1,63.9,60.4,58.9,54.5,49.5,89,72,50,29.83,29.36,10,2,13,0.00
2012-11-2,78.6,63.3,57.0,58.4,53.6,48.2,90,73,38,30.12,29.83,4,1,6,0.05
2012-11-3,70.5,62.5,56.5,58.4,53.4,50.2,89,73,54,30.21,30.12,6,2,7,0.00
2012-11-4,69.3,66.4,62.4,66.6,61.9,51.3,95,86,65,30.15,29.92,9,4,14,0.00
2012-11-5,70.9,67.9,63.5,66.0,61.7,52.9,94,81,65,30.04,29.83,7,3,9,0.00
2012-11-6,76.1,64.0,41.3,58.5,51.6,31.5,87,65,38,30.18,29.97,5,1,6,78.25
2012-11-7,78.3,61.0,54.1,54.2,45.0,35.6,84,59,31,30.33,30.06,3,0,4,0.00
2012-11-8,78.6,58.7,49.6,47.2,40.6,33.4,73,52,32,30.33,30.18,3,0,4,0.00
2012-11-9,74.8,58.3,49.5,49.9,44.0,38.4,79,61,34,30.18,30.06,32,0,99,0.00
2012-11-10,74.7,61.4,50.9,54.4,46.1,39.0,74,59,36,30.09,29.95,10,2,22,0.00
2012-11-11,70.2,66.6,64.9,64.6,55.7,42.6,91,70,42,30.06,29.86,12,4,16,4.69
2012-11-12,81.1,69.7,64.9,64.7,59.3,56.6,79,70,46,30.21,30.04,10,3,15,0.00
2012-11-13,79.2,67.6,60.6,61.1,57.1,53.7,85,71,44,30.27,30.18,1,0,2,0.00
2012-11-17,73.9,63.0,57.4,54.2,48.1,43.3,88,60,40,30.04,29.92,2,0,2,4.69
2012-11-18,65.5,59.6,56.5,59.3,55.5,53.7,93,87,77,29.95,29.83,3,0,4,4.69
2012-11-19,72.0,61.6,56.7,61.2,54.8,52.3,94,79,53,29.86,29.83,1,0,2,0.00
2012-11-20,63.5,59.2,56.7,55.1,52.5,47.9,87,79,72,29.98,29.83,1,0,2,0.00
2012-11-21,74.3,59.9,53.2,52.5,49.1,40.8,84,69,42,30.09,29.95,1,0,2,0.00
2012-11-22,73.4,59.5,52.7,53.9,51.0,48.2,85,75,48,30.21,30.06,1,0,2,0.00
2012-11-23,75.2,60.2,54.5,59.3,51.8,48.3,86,75,44,30.27,30.15,2,0,4,0.00
2012-11-24,74.7,58.0,41.3,52.6,48.9,31.5,88,73,38,30.27,29.97,0,0,1,4.69
2012-11-25,77.4,57.6,48.4,51.4,46.9,43.8,85,70,36,30.24,30.15,2,0,2,0.00
2012-11-26,73.8,56.9,47.7,51.7,47.4,42.1,83,72,42,30.18,30.01,64,1,78,0.00
2012-11-27,63.9,60.3,52.9,59.3,53.6,46.2,85,78,73,30.01,29.65,13,4,18,4.69
2012-11-28,66.9,60.8,52.9,61.4,53.6,44.6,90,77,62,29.68,29.27,11,4,17,0.00
2012-11-29,56.8,53.5,51.4,51.5,48.8,45.3,93,84,69,29.36,29.21,9,3,11,0.00
2012-11-30,64.4,54.5,50.5,51.1,40.9,33.3,89,62,37,29.68,29.36,6,2,8,0.00
2012-12-1,62.1,51.6,48.6,52.6,44.6,38.4,88,77,58,29.83,29.65,2,0,3,19.76
2012-12-2,68.4,53.6,46.2,56.2,45.9,40.6,93,77,45,29.83,29.68,4,0,5,29.80
2012-12-3,60.1,47.5,41.0,41.7,31.7,24.8,84,57,31,30.06,29.71,3,1,5,0.87
2012-12-4,58.6,50.9,41.0,49.2,39.0,27.0,77,64,53,30.04,29.56,9,1,11,0.32
2012-12-5,64.6,49.9,42.1,45.4,38.1,33.3,82,65,43,29.71,29.53,4,0,4,0.00
2012-12-6,64.0,46.0,39.0,37.4,30.7,24.1,76,57,35,29.92,29.68,2,0,4,0.00
2012-12-7,55.6,44.7,34.7,48.7,34.7,27.1,92,69,47,29.95,29.62,8,2,8,0.00
2012-12-8,56.7,46.4,39.7,49.7,32.2,23.0,90,59,38,29.77,29.53,6,2,10,0.00
2012-12-9,55.2,44.2,38.7,26.2,21.2,17.0,49,41,27,30.04,29.77,4,2,6,0.00
2012-12-13,50.5,47.1,36.7,34.5,29.0,23.3,58,49,44,30.21,30.12,4,0,6,73.44
2012-12-14,55.6,51.9,41.3,51.1,43.0,31.5,85,72,38,30.15,29.97,9,2,14,73.44
2012-12-15,59.0,57.4,55.2,56.4,54.3,51.1,92,89,86,30.12,30.01,8,3,10,0.00
2012-12-16,65.5,58.8,55.4,56.5,54.1,51.9,93,85,66,30.06,29.95,4,1,5,0.00
2012-12-17,63.0,54.8,47.8,53.8,49.3,42.3,93,82,66,29.95,29.74,6,1,6,0.00
2012-12-18,65.5,50.3,43.9,47.6,41.1,37.1,87,72,44,29.92,29.80,2,0,3,0.00
2012-12-19,63.5,48.3,39.4,43.4,33.6,28.4,85,60,35,30.12,29.92,3,0,4,0.00
2012-12-20,56.1,47.0,39.6,35.4,31.4,28.4,65,55,40,30.18,29.95,1,0,2,0.00
2012-12-21,51.4,47.0,42.1,43.4,39.3,35.6,81,75,62,30.01,29.83,1,0,3,0.00
2012-12-22,70.5,50.2,40.6,43.9,36.7,31.5,83,62,33,30.15,29.89,2,0,2,0.00
2012-12-23,64.8,49.9,40.5,46.0,39.4,31.5,82,68,44,30.21,30.12,2,0,2,0.00
2012-12-24,66.7,52.6,44.6,51.2,45.6,39.8,91,78,46,30.27,30.18,4,0,5,0.00
2012-12-25,63.3,54.9,50.0,53.9,47.9,45.8,87,78,61,30.27,30.06,8,1,11,0.00
2012-12-26,66.6,59.5,53.8,54.6,51.0,46.4,87,74,58,30.09,29.95,9,3,10,0.00
2012-12-27,71.8,56.6,49.1,55.0,49.6,46.9,94,79,46,30.21,30.06,5,1,6,0.00
2012-12-28,70.9,55.7,48.2,55.2,42.2,27.8,92,64,38,30.27,30.04,5,1,6,0.04
2012-12-29,66.0,52.2,41.3,33.3,28.0,25.5,51,40,27,30.27,29.97,3,1,4,0.00
2012-12-30,69.6,49.3,39.9,38.4,30.7,25.9,62,50,31,30.27,30.18,1,0,2,0.00
2012-12-31,68.4,47.7,37.8,38.4,31.8,28.2,71,56,33,30.30,30.18,2,0,17,0.00
2013-1-1,64.8,48.1,38.1,45.7,37.7,29.9,83,68,38,30.18,29.97,3,0,5,0.00